Time;durP1;ratioP1;P1;durP2;ratioP2;P2;SDS_P1;SDS_P2;PMS_P1;PMS_P2;Temp;Humidity;BMP_temperature;BMP_pressure;BME280_temperature;BME280_humidity;BME280_pressure;Samples;Min_cycle;Max_cycle;Signal;HPM_P1;HPM_P2
2022/07/02 00:00:42;;;;;;;;;;;14.80;99.90;;;;;;5032580;28;19913;-76
2022/07/02 00:03:09;;;;;;;;;;;14.70;99.90;;;;;;5063977;28;20175;-75
2022/07/02 00:05:38;;;;;;;;;;;14.70;99.90;;;;;;5030539;28;20012;-75
2022/07/02 00:08:04;;;;;;;;;;;14.70;99.90;;;;;;5028128;28;19917;-76
2022/07/02 00:10:30;;;;;;;;;;;14.70;99.90;;;;;;5023119;28;20252;-75
2022/07/02 00:12:55;;;;;;;;;;;14.70;99.90;;;;;;5034996;28;19928;-75
2022/07/02 00:15:21;;;;;;;;;;;14.70;99.90;;;;;;5033217;28;19996;-74
2022/07/02 00:17:47;;;;;;;;;;;14.80;99.90;;;;;;5034880;28;19970;-75
2022/07/02 00:20:13;;;;;;;;;;;14.80;99.90;;;;;;5036236;28;19936;-76
2022/07/02 00:22:39;;;;;;;;;;;14.80;99.90;;;;;;5036012;28;19967;-77
2022/07/02 00:25:05;;;;;;;;;;;14.80;99.90;;;;;;5037670;28;19963;-75
2022/07/02 00:27:31;;;;;;;;;;;14.80;99.90;;;;;;5036256;28;19952;-75
2022/07/02 00:29:57;;;;;;;;;;;14.80;99.90;;;;;;5036637;28;20316;-74
2022/07/02 00:32:26;;;;;;;;;;;14.80;99.90;;;;;;5033022;28;20225;-74
2022/07/02 00:34:53;;;;;;;;;;;14.70;99.90;;;;;;5035798;28;19920;-74
2022/07/02 00:37:19;;;;;;;;;;;14.80;99.90;;;;;;5034049;28;19917;-74
2022/07/02 00:39:45;;;;;;;;;;;14.80;99.90;;;;;;5037648;28;19917;-74
2022/07/02 00:42:11;;;;;;;;;;;14.80;99.90;;;;;;5033589;28;19917;-75
2022/07/02 00:44:36;;;;;;;;;;;14.70;99.90;;;;;;5028314;28;20220;-76
2022/07/02 00:47:04;;;;;;;;;;;14.70;99.90;;;;;;5035344;28;19917;-76
2022/07/02 00:49:34;;;;;;;;;;;14.60;99.90;;;;;;5034883;28;19948;-75
2022/07/02 00:52:00;;;;;;;;;;;14.60;99.90;;;;;;5032684;28;19951;-75
2022/07/02 00:54:26;;;;;;;;;;;14.60;99.90;;;;;;5023217;28;19927;-75
2022/07/02 00:56:52;;;;;;;;;;;14.60;99.90;;;;;;5037078;28;19913;-76
2022/07/02 00:59:18;;;;;;;;;;;14.60;99.90;;;;;;5034019;28;20008;-75
2022/07/02 01:01:43;;;;;;;;;;;14.50;99.90;;;;;;5036372;28;19917;-76
2022/07/02 01:04:11;;;;;;;;;;;14.50;99.90;;;;;;5035729;28;20164;-76
2022/07/02 01:06:38;;;;;;;;;;;14.50;99.90;;;;;;5036226;28;20259;-75
2022/07/02 01:11:49;;;;;;;;;;;14.50;99.90;;;;;;5036790;28;19940;-76
2022/07/02 01:14:18;;;;;;;;;;;14.50;99.90;;;;;;5036399;28;19916;-75
2022/07/02 01:16:43;;;;;;;;;;;14.50;99.90;;;;;;5031154;28;19913;-75
2022/07/02 01:19:10;;;;;;;;;;;14.40;99.90;;;;;;5036499;28;19928;-76
2022/07/02 01:21:36;;;;;;;;;;;14.40;99.90;;;;;;5035204;28;20012;-76
2022/07/02 01:24:02;;;;;;;;;;;14.40;99.90;;;;;;5033431;28;19917;-76
2022/07/02 01:26:27;;;;;;;;;;;14.30;99.90;;;;;;5035355;28;20330;-76
2022/07/02 01:28:53;;;;;;;;;;;14.30;99.90;;;;;;5021980;28;19917;-76
2022/07/02 01:31:19;;;;;;;;;;;14.30;99.90;;;;;;5032921;28;19917;-76
2022/07/02 01:33:44;;;;;;;;;;;14.20;99.90;;;;;;5035078;28;19994;-77
2022/07/02 01:36:10;;;;;;;;;;;14.20;99.90;;;;;;5035619;28;19917;-78
2022/07/02 01:38:35;;;;;;;;;;;14.20;99.90;;;;;;5036199;28;19917;-75
2022/07/02 01:43:45;;;;;;;;;;;14.10;99.90;;;;;;5036690;28;19956;-76
2022/07/02 01:46:11;;;;;;;;;;;14.20;99.90;;;;;;5064451;28;19913;-75
2022/07/02 01:48:36;;;;;;;;;;;14.20;99.90;;;;;;5035043;28;19920;-76
2022/07/02 01:51:02;;;;;;;;;;;14.20;99.90;;;;;;5033695;28;19917;-76
2022/07/02 01:53:27;;;;;;;;;;;14.20;99.90;;;;;;5034392;28;19913;-77
2022/07/02 01:55:53;;;;;;;;;;;14.20;99.90;;;;;;5026574;28;20359;-78
2022/07/02 01:58:19;;;;;;;;;;;14.20;99.90;;;;;;5035018;28;19920;-78
2022/07/02 02:00:44;;;;;;;;;;;14.20;99.90;;;;;;5034696;28;19921;-77
2022/07/02 02:03:10;;;;;;;;;;;14.20;99.90;;;;;;5029000;28;19924;-77
2022/07/02 02:05:35;;;;;;;;;;;14.20;99.90;;;;;;5035010;28;20075;-75
2022/07/02 02:08:01;;;;;;;;;;;14.10;99.90;;;;;;5033753;28;19963;-75
2022/07/02 02:10:26;;;;;;;;;;;14.20;99.90;;;;;;5035171;28;20404;-74
2022/07/02 02:12:52;;;;;;;;;;;14.20;99.90;;;;;;5016750;28;19932;-77
2022/07/02 02:15:17;;;;;;;;;;;14.20;99.90;;;;;;5035673;28;19936;-77
2022/07/02 02:17:43;;;;;;;;;;;14.20;99.90;;;;;;5034056;28;19913;-76
2022/07/02 02:20:09;;;;;;;;;;;14.10;99.90;;;;;;5030100;28;20327;-76
2022/07/02 02:22:34;;;;;;;;;;;14.10;99.90;;;;;;5034935;28;19917;-76
2022/07/02 02:25:00;;;;;;;;;;;14.10;99.90;;;;;;5035576;28;20288;-76
2022/07/02 02:27:25;;;;;;;;;;;14.10;99.90;;;;;;5034604;28;19967;-78
2022/07/02 02:29:51;;;;;;;;;;;14.00;99.90;;;;;;5034404;28;19919;-76
2022/07/02 02:32:17;;;;;;;;;;;14.00;99.90;;;;;;5034721;28;19948;-75
2022/07/02 02:34:42;;;;;;;;;;;14.00;99.90;;;;;;5033373;28;19913;-75
2022/07/02 02:37:08;;;;;;;;;;;14.00;99.90;;;;;;5034482;28;19920;-76
2022/07/02 02:39:34;;;;;;;;;;;14.00;99.90;;;;;;5035773;28;19913;-75
2022/07/02 02:41:59;;;;;;;;;;;14.00;99.90;;;;;;5034267;28;19917;-75
2022/07/02 02:44:25;;;;;;;;;;;14.00;99.90;;;;;;5032289;28;19940;-77
2022/07/02 02:46:50;;;;;;;;;;;14.00;99.90;;;;;;5034658;28;20025;-77
2022/07/02 02:49:16;;;;;;;;;;;13.90;99.90;;;;;;5032006;28;19920;-75
2022/07/02 02:51:42;;;;;;;;;;;13.90;99.90;;;;;;5034303;28;19992;-76
2022/07/02 02:54:07;;;;;;;;;;;13.90;99.90;;;;;;5033906;28;19921;-77
2022/07/02 02:56:33;;;;;;;;;;;13.80;99.90;;;;;;5034085;28;19914;-75
2022/07/02 02:58:58;;;;;;;;;;;13.80;99.90;;;;;;5026415;28;19914;-75
2022/07/02 03:01:24;;;;;;;;;;;13.80;99.90;;;;;;5028249;28;19994;-77
2022/07/02 03:03:49;;;;;;;;;;;13.80;99.90;;;;;;5032889;28;19931;-77
2022/07/02 03:06:15;;;;;;;;;;;13.80;99.90;;;;;;5034073;28;19913;-76
2022/07/02 03:08:40;;;;;;;;;;;13.80;99.90;;;;;;5035024;28;19920;-75
2022/07/02 03:11:06;;;;;;;;;;;13.80;99.90;;;;;;5034457;28;20310;-77
2022/07/02 03:13:32;;;;;;;;;;;13.80;99.90;;;;;;5029127;28;19917;-76
2022/07/02 03:15:57;;;;;;;;;;;13.70;99.90;;;;;;5032379;28;19956;-76
2022/07/02 03:18:23;;;;;;;;;;;13.70;99.90;;;;;;5032368;28;19913;-74
2022/07/02 03:20:48;;;;;;;;;;;13.70;99.90;;;;;;5032996;28;19948;-75
2022/07/02 03:23:14;;;;;;;;;;;13.60;99.90;;;;;;5033665;28;20330;-75
2022/07/02 03:25:39;;;;;;;;;;;13.60;99.90;;;;;;5031796;28;20399;-74
2022/07/02 03:28:06;;;;;;;;;;;13.60;99.90;;;;;;5037590;28;19909;-75
2022/07/02 03:30:31;;;;;;;;;;;13.60;99.90;;;;;;5034462;28;19913;-75
2022/07/02 03:32:57;;;;;;;;;;;13.60;99.90;;;;;;5032256;28;19909;-75
2022/07/02 03:35:22;;;;;;;;;;;13.50;99.90;;;;;;5033245;28;19996;-74
2022/07/02 03:37:48;;;;;;;;;;;13.50;99.90;;;;;;5033253;28;19944;-76
2022/07/02 03:40:13;;;;;;;;;;;13.50;99.90;;;;;;5034338;28;20239;-75
2022/07/02 03:42:39;;;;;;;;;;;13.50;99.90;;;;;;5065698;28;19913;-77
2022/07/02 03:45:05;;;;;;;;;;;13.40;99.90;;;;;;5031860;28;19917;-75
2022/07/02 03:47:30;;;;;;;;;;;13.40;99.90;;;;;;5032036;28;20311;-76
2022/07/02 03:49:56;;;;;;;;;;;13.40;99.90;;;;;;5034382;28;19963;-77
2022/07/02 03:52:21;;;;;;;;;;;13.40;99.90;;;;;;5029414;28;20334;-75
2022/07/02 03:54:47;;;;;;;;;;;13.40;99.90;;;;;;5034156;28;20319;-77
2022/07/02 03:57:12;;;;;;;;;;;13.40;99.90;;;;;;5033190;28;19913;-76
2022/07/02 03:59:38;;;;;;;;;;;13.50;99.90;;;;;;5066074;28;19917;-75
2022/07/02 04:02:04;;;;;;;;;;;13.50;99.90;;;;;;5033246;28;20015;-76
2022/07/02 04:04:29;;;;;;;;;;;13.50;99.90;;;;;;5063457;28;19924;-76
2022/07/02 04:06:55;;;;;;;;;;;13.40;99.90;;;;;;5033778;28;19920;-75
2022/07/02 04:09:20;;;;;;;;;;;13.50;99.90;;;;;;5033713;28;20312;-74
2022/07/02 04:11:46;;;;;;;;;;;13.40;99.90;;;;;;5032384;28;19926;-75
2022/07/02 04:14:11;;;;;;;;;;;13.50;99.90;;;;;;5031531;28;20220;-75
2022/07/02 04:16:37;;;;;;;;;;;13.50;99.90;;;;;;5032711;28;20297;-77
2022/07/02 04:19:02;;;;;;;;;;;13.50;99.90;;;;;;5033938;28;20347;-79
2022/07/02 04:21:28;;;;;;;;;;;13.50;99.90;;;;;;5032879;28;19913;-75
2022/07/02 04:23:53;;;;;;;;;;;13.60;99.90;;;;;;5032493;28;19921;-76
2022/07/02 04:26:19;;;;;;;;;;;13.60;99.90;;;;;;5064982;28;19917;-76
2022/07/02 04:28:45;;;;;;;;;;;13.60;99.90;;;;;;5031443;28;19924;-76
2022/07/02 04:31:10;;;;;;;;;;;13.70;99.90;;;;;;5032491;28;20259;-75
2022/07/02 04:33:36;;;;;;;;;;;13.70;99.90;;;;;;5032892;28;19918;-75
2022/07/02 04:36:01;;;;;;;;;;;13.70;99.90;;;;;;5021374;28;20331;-75
2022/07/02 04:38:27;;;;;;;;;;;13.70;99.90;;;;;;5033234;28;19970;-77
2022/07/02 04:40:53;;;;;;;;;;;13.80;99.90;;;;;;5032615;28;20247;-76
2022/07/02 04:43:18;;;;;;;;;;;13.80;99.90;;;;;;5032940;28;19956;-76
2022/07/02 04:45:44;;;;;;;;;;;13.90;99.90;;;;;;5034266;28;19943;-77
2022/07/02 04:48:09;;;;;;;;;;;13.90;99.90;;;;;;5032740;28;20175;-75
2022/07/02 04:50:35;;;;;;;;;;;14.00;99.90;;;;;;5031401;28;19917;-75
2022/07/02 04:53:01;;;;;;;;;;;14.10;99.90;;;;;;5031559;28;19920;-75
2022/07/02 04:55:26;;;;;;;;;;;14.10;99.90;;;;;;5014650;28;19917;-75
2022/07/02 04:57:52;;;;;;;;;;;14.10;99.90;;;;;;5022107;28;19917;-75
2022/07/02 05:00:17;;;;;;;;;;;14.10;99.90;;;;;;5037453;28;19913;-76
2022/07/02 05:02:43;;;;;;;;;;;14.10;99.90;;;;;;5037673;28;19916;-76
2022/07/02 05:05:09;;;;;;;;;;;14.20;99.90;;;;;;5035934;28;19928;-75
2022/07/02 05:07:34;;;;;;;;;;;14.20;99.90;;;;;;5033422;28;20316;-75
2022/07/02 05:10:00;;;;;;;;;;;14.20;99.90;;;;;;5036468;28;20003;-78
2022/07/02 05:12:26;;;;;;;;;;;14.30;99.90;;;;;;5036195;28;19932;-77
2022/07/02 05:14:51;;;;;;;;;;;14.40;99.90;;;;;;5036354;28;20360;-77
2022/07/02 05:17:17;;;;;;;;;;;14.40;99.90;;;;;;5036971;28;19947;-78
2022/07/02 05:19:43;;;;;;;;;;;14.40;99.90;;;;;;5035712;28;19916;-77
2022/07/02 05:22:08;;;;;;;;;;;14.50;99.90;;;;;;5035694;28;19952;-77
2022/07/02 05:24:34;;;;;;;;;;;14.50;99.90;;;;;;5035999;28;19921;-77
2022/07/02 05:26:59;;;;;;;;;;;14.60;99.90;;;;;;5018676;28;20169;-78
2022/07/02 05:29:25;;;;;;;;;;;14.60;99.90;;;;;;5037215;28;19910;-75
2022/07/02 05:31:50;;;;;;;;;;;14.60;99.90;;;;;;5066577;28;19924;-78
2022/07/02 05:34:16;;;;;;;;;;;14.70;99.90;;;;;;5035924;28;20337;-78
2022/07/02 05:36:41;;;;;;;;;;;14.70;99.90;;;;;;5033115;28;19921;-78
2022/07/02 05:39:07;;;;;;;;;;;14.80;99.90;;;;;;5036846;28;20212;-77
2022/07/02 05:41:33;;;;;;;;;;;14.80;99.90;;;;;;5036512;28;19913;-78
2022/07/02 05:43:58;;;;;;;;;;;14.80;99.90;;;;;;5036247;28;19953;-76
2022/07/02 05:46:24;;;;;;;;;;;14.90;99.90;;;;;;5035611;28;19924;-76
2022/07/02 05:48:49;;;;;;;;;;;14.90;99.90;;;;;;5034934;28;19921;-77
2022/07/02 05:51:16;;;;;;;;;;;14.90;99.90;;;;;;5035392;28;19909;-77
2022/07/02 05:53:41;;;;;;;;;;;14.90;99.90;;;;;;5029472;28;19944;-76
2022/07/02 05:56:07;;;;;;;;;;;14.90;99.90;;;;;;5030714;28;19991;-76
2022/07/02 05:58:33;;;;;;;;;;;15.00;99.90;;;;;;5035332;28;20304;-76
2022/07/02 06:00:58;;;;;;;;;;;15.00;99.90;;;;;;5013553;28;20271;-75
2022/07/02 06:03:24;;;;;;;;;;;15.00;99.90;;;;;;5025493;28;19921;-76
2022/07/02 06:08:33;;;;;;;;;;;15.10;99.90;;;;;;5033896;28;19971;-75
2022/07/02 06:10:59;;;;;;;;;;;15.10;99.90;;;;;;5033411;28;20316;-75
2022/07/02 06:13:24;;;;;;;;;;;15.10;99.90;;;;;;5033489;28;19957;-79
2022/07/02 06:15:50;;;;;;;;;;;15.20;99.90;;;;;;5033829;28;20364;-75
2022/07/02 06:18:16;;;;;;;;;;;15.20;99.90;;;;;;5033389;28;19921;-75
2022/07/02 06:20:41;;;;;;;;;;;15.30;99.90;;;;;;5033200;28;20212;-75
2022/07/02 06:23:07;;;;;;;;;;;15.30;99.90;;;;;;5033084;28;19921;-76
2022/07/02 06:25:33;;;;;;;;;;;15.40;99.90;;;;;;5032555;28;20220;-76
2022/07/02 06:27:59;;;;;;;;;;;15.40;99.90;;;;;;5032112;28;19921;-76
2022/07/02 06:30:25;;;;;;;;;;;15.40;99.90;;;;;;5032383;28;19927;-79
2022/07/02 06:32:51;;;;;;;;;;;15.50;99.90;;;;;;5034147;28;20011;-75
2022/07/02 06:35:17;;;;;;;;;;;15.50;99.90;;;;;;5029248;28;20008;-76
2022/07/02 06:37:43;;;;;;;;;;;15.50;99.90;;;;;;5030666;28;19924;-76
2022/07/02 06:40:09;;;;;;;;;;;15.60;99.90;;;;;;5030414;28;19913;-75
2022/07/02 06:42:34;;;;;;;;;;;15.60;99.90;;;;;;5030032;28;19917;-79
2022/07/02 06:45:00;;;;;;;;;;;15.70;99.90;;;;;;5031373;28;19927;-74
2022/07/02 06:47:26;;;;;;;;;;;15.70;99.90;;;;;;5032589;28;19960;-75
2022/07/02 06:49:53;;;;;;;;;;;15.80;99.90;;;;;;5030739;28;19921;-75
2022/07/02 06:52:19;;;;;;;;;;;15.90;99.90;;;;;;5032781;28;19927;-76
2022/07/02 06:54:44;;;;;;;;;;;15.90;99.90;;;;;;5031296;28;20247;-75
2022/07/02 06:57:10;;;;;;;;;;;16.00;99.90;;;;;;5030578;28;19913;-75
2022/07/02 06:59:36;;;;;;;;;;;16.10;99.90;;;;;;5032622;28;19919;-76
2022/07/02 07:02:01;;;;;;;;;;;16.20;99.90;;;;;;5016287;28;19913;-80
2022/07/02 07:04:27;;;;;;;;;;;16.20;99.90;;;;;;5032565;28;19925;-74
2022/07/02 07:06:56;;;;;;;;;;;16.40;99.90;;;;;;5031597;28;20308;-75
2022/07/02 07:09:25;;;;;;;;;;;16.40;99.90;;;;;;5030011;28;19928;-75
2022/07/02 07:11:50;;;;;;;;;;;16.50;99.90;;;;;;5023101;28;19925;-75
2022/07/02 07:14:16;;;;;;;;;;;16.60;99.90;;;;;;5030965;28;19913;-74
2022/07/02 07:16:42;;;;;;;;;;;16.60;99.90;;;;;;5029723;28;19920;-75
2022/07/02 07:19:07;;;;;;;;;;;16.70;99.90;;;;;;5030324;28;20366;-75
2022/07/02 07:21:34;;;;;;;;;;;16.80;99.90;;;;;;5031562;28;19920;-77
2022/07/02 07:24:00;;;;;;;;;;;16.80;99.90;;;;;;5031454;28;20212;-78
2022/07/02 07:26:25;;;;;;;;;;;16.90;99.90;;;;;;5031009;28;19913;-77
2022/07/02 07:28:51;;;;;;;;;;;17.00;99.90;;;;;;5032865;28;19914;-76
2022/07/02 07:31:20;;;;;;;;;;;17.10;99.90;;;;;;5028833;28;19920;-75
2022/07/02 07:33:46;;;;;;;;;;;17.20;99.90;;;;;;5034502;28;19913;-76
2022/07/02 07:36:12;;;;;;;;;;;17.30;99.90;;;;;;5066920;28;19916;-76
2022/07/02 07:38:39;;;;;;;;;;;17.40;99.90;;;;;;5064992;28;19913;-76
2022/07/02 07:41:04;;;;;;;;;;;17.60;99.90;;;;;;5032079;28;20288;-75
2022/07/02 07:43:30;;;;;;;;;;;17.70;99.90;;;;;;5029838;28;20011;-76
2022/07/02 07:45:55;;;;;;;;;;;17.80;99.90;;;;;;5034198;28;20324;-74
2022/07/02 07:48:21;;;;;;;;;;;17.90;99.90;;;;;;5033923;28;20291;-75
2022/07/02 07:50:46;;;;;;;;;;;18.00;99.90;;;;;;5025335;28;19921;-75
2022/07/02 07:53:12;;;;;;;;;;;18.10;99.90;;;;;;5028074;28;19959;-76
2022/07/02 07:55:39;;;;;;;;;;;18.30;99.90;;;;;;5031196;28;19913;-75
2022/07/02 07:58:05;;;;;;;;;;;18.70;99.90;;;;;;5027923;28;19918;-75
2022/07/02 08:00:30;;;;;;;;;;;19.00;99.90;;;;;;5030384;28;19925;-75
2022/07/02 08:02:56;;;;;;;;;;;19.30;99.90;;;;;;5032441;28;19917;-75
2022/07/02 08:05:21;;;;;;;;;;;19.60;99.90;;;;;;5033411;28;19922;-75
2022/07/02 08:07:47;;;;;;;;;;;19.90;99.90;;;;;;5030569;28;19945;-76
2022/07/02 08:10:12;;;;;;;;;;;20.20;99.90;;;;;;5030597;28;19913;-76
2022/07/02 08:12:39;;;;;;;;;;;20.60;99.90;;;;;;5029983;28;19922;-77
2022/07/02 08:15:05;;;;;;;;;;;21.10;99.90;;;;;;5024670;28;20040;-76
2022/07/02 08:17:31;;;;;;;;;;;21.50;99.90;;;;;;5031844;28;20323;-76
2022/07/02 08:19:56;;;;;;;;;;;21.30;99.90;;;;;;5031214;28;19909;-76
2022/07/02 08:22:22;;;;;;;;;;;21.50;99.90;;;;;;5029021;28;19941;-75
2022/07/02 08:24:48;;;;;;;;;;;21.90;99.90;;;;;;5031565;28;20296;-76
2022/07/02 08:27:16;;;;;;;;;;;21.80;99.90;;;;;;5028733;28;20523;-78
2022/07/02 08:29:42;;;;;;;;;;;22.20;99.90;;;;;;5025921;28;20267;-78
2022/07/02 08:32:07;;;;;;;;;;;22.40;99.90;;;;;;5028501;28;19956;-77
2022/07/02 08:34:33;;;;;;;;;;;23.00;98.90;;;;;;5034346;28;19919;-77
2022/07/02 08:36:59;;;;;;;;;;;22.70;99.60;;;;;;5035048;28;19908;-77
2022/07/02 08:39:25;;;;;;;;;;;23.10;99.90;;;;;;5024577;28;19922;-78
2022/07/02 08:41:52;;;;;;;;;;;23.40;99.20;;;;;;5021810;28;20690;-76
2022/07/02 08:44:19;;;;;;;;;;;23.70;98.30;;;;;;5031838;28;19921;-77
2022/07/02 08:46:46;;;;;;;;;;;23.50;99.90;;;;;;5032199;28;20016;-76
2022/07/02 08:49:12;;;;;;;;;;;23.90;97.10;;;;;;5036581;28;19917;-77
2022/07/02 08:51:39;;;;;;;;;;;24.20;97.50;;;;;;5036830;28;19910;-74
2022/07/02 08:54:05;;;;;;;;;;;24.40;98.00;;;;;;5030830;28;19927;-75
2022/07/02 08:56:31;;;;;;;;;;;24.60;97.30;;;;;;5031536;28;19924;-78
2022/07/02 08:58:58;;;;;;;;;;;24.80;98.10;;;;;;5028036;28;19913;-76
2022/07/02 09:01:24;;;;;;;;;;;25.00;95.80;;;;;;5017572;28;20058;-77
2022/07/02 09:03:51;;;;;;;;;;;25.10;95.90;;;;;;5027663;28;19913;-77
2022/07/02 09:06:19;;;;;;;;;;;24.90;95.70;;;;;;5035076;28;19959;-77
2022/07/02 09:08:45;;;;;;;;;;;25.10;96.20;;;;;;5020506;28;19917;-80
2022/07/02 09:11:11;;;;;;;;;;;25.20;96.40;;;;;;5024228;28;19929;-74
2022/07/02 09:13:39;;;;;;;;;;;25.50;95.40;;;;;;5027867;28;19963;-77
2022/07/02 09:16:05;;;;;;;;;;;25.70;95.50;;;;;;5028730;28;19921;-77
2022/07/02 09:18:31;;;;;;;;;;;25.80;95.30;;;;;;5019325;28;19917;-77
2022/07/02 09:20:56;;;;;;;;;;;25.80;95.00;;;;;;5031388;28;19927;-78
2022/07/02 09:23:22;;;;;;;;;;;25.80;94.60;;;;;;5032801;28;19983;-77
2022/07/02 09:25:48;;;;;;;;;;;25.80;93.90;;;;;;5028411;28;19925;-77
2022/07/02 09:28:15;;;;;;;;;;;25.50;94.80;;;;;;5031576;28;19952;-76
2022/07/02 09:30:40;;;;;;;;;;;25.50;95.30;;;;;;5031092;28;19928;-77
2022/07/02 09:33:38;;;;;;;;;;;25.60;93.70;;;;;;5025508;28;19917;-76
2022/07/02 09:36:11;;;;;;;;;;;25.70;95.10;;;;;;4994420;28;19918;-75
2022/07/02 09:38:43;;;;;;;;;;;25.90;94.30;;;;;;4994048;28;19926;-77
2022/07/02 09:41:13;;;;;;;;;;;26.20;94.40;;;;;;4997238;28;19913;-77
2022/07/02 09:43:38;;;;;;;;;;;26.50;93.80;;;;;;5001689;28;19924;-77
2022/07/02 09:46:14;;;;;;;;;;;26.20;93.00;;;;;;4990491;28;19918;-76
2022/07/02 09:48:40;;;;;;;;;;;25.70;93.90;;;;;;4988092;28;19949;-80
2022/07/02 09:51:05;;;;;;;;;;;25.20;94.70;;;;;;4984989;28;19925;-78
2022/07/02 09:53:32;;;;;;;;;;;24.80;95.00;;;;;;4989790;28;19928;-78
2022/07/02 09:55:57;;;;;;;;;;;24.80;96.10;;;;;;5004109;28;19914;-77
2022/07/02 09:58:26;;;;;;;;;;;25.20;97.00;;;;;;5008085;28;19924;-80
2022/07/02 10:00:53;;;;;;;;;;;25.90;93.70;;;;;;5003789;28;20399;-76
2022/07/02 10:03:18;;;;;;;;;;;26.40;93.00;;;;;;5006069;28;19918;-76
2022/07/02 10:05:52;;;;;;;;;;;26.80;92.40;;;;;;4994537;28;19929;-75
2022/07/02 10:08:18;;;;;;;;;;;26.60;93.40;;;;;;5008320;28;19952;-76
2022/07/02 10:10:43;;;;;;;;;;;26.20;93.90;;;;;;4991178;28;19959;-77
2022/07/02 10:13:10;;;;;;;;;;;26.50;95.10;;;;;;5025349;28;19983;-77
2022/07/02 10:15:39;;;;;;;;;;;26.90;95.20;;;;;;5031297;28;19917;-75
2022/07/02 10:18:05;;;;;;;;;;;27.10;93.20;;;;;;5031796;28;20438;-78
2022/07/02 10:20:32;;;;;;;;;;;26.70;93.50;;;;;;5065964;28;20292;-76
2022/07/02 10:22:58;;;;;;;;;;;26.60;94.50;;;;;;5032871;28;19913;-77
2022/07/02 10:25:24;;;;;;;;;;;26.80;94.50;;;;;;5033211;28;19921;-78
2022/07/02 10:27:51;;;;;;;;;;;26.60;93.90;;;;;;5031226;28;19940;-80
2022/07/02 10:30:20;;;;;;;;;;;26.90;92.60;;;;;;5033570;28;19989;-75
2022/07/02 10:32:52;;;;;;;;;;;26.90;92.00;;;;;;5034706;28;19917;-75
2022/07/02 10:35:20;;;;;;;;;;;26.40;92.90;;;;;;5032529;28;19920;-76
2022/07/02 10:37:46;;;;;;;;;;;26.60;93.90;;;;;;5032569;28;20032;-75
2022/07/02 10:40:21;;;;;;;;;;;26.60;92.80;;;;;;5034083;28;19921;-76
2022/07/02 10:42:50;;;;;;;;;;;26.90;93.50;;;;;;5034236;28;20236;-79
2022/07/02 10:45:22;;;;;;;;;;;26.90;94.00;;;;;;5031026;28;19936;-76
2022/07/02 10:48:01;;;;;;;;;;;26.60;92.60;;;;;;5032865;28;19939;-75
2022/07/02 10:50:37;;;;;;;;;;;26.90;94.20;;;;;;5046898;28;20241;-76
2022/07/02 10:53:10;;;;;;;;;;;26.30;93.20;;;;;;5031133;28;19921;-75
2022/07/02 10:55:36;;;;;;;;;;;26.10;93.40;;;;;;5032417;28;19917;-75
2022/07/02 10:58:03;;;;;;;;;;;26.70;91.60;;;;;;5030359;28;19913;-75
2022/07/02 11:00:30;;;;;;;;;;;26.50;93.40;;;;;;5031352;28;19992;-76
2022/07/02 11:02:57;;;;;;;;;;;27.00;92.40;;;;;;5032910;28;19936;-76
2022/07/02 11:05:22;;;;;;;;;;;26.50;92.80;;;;;;5035926;28;19925;-76
2022/07/02 11:07:48;;;;;;;;;;;26.10;94.00;;;;;;5021945;28;20343;-76
2022/07/02 11:10:13;;;;;;;;;;;25.90;92.50;;;;;;5029038;28;19971;-77
2022/07/02 11:12:42;;;;;;;;;;;26.10;94.50;;;;;;5029547;28;20060;-76
2022/07/02 11:15:15;;;;;;;;;;;26.20;90.80;;;;;;5031022;28;21114;-75
2022/07/02 11:17:42;;;;;;;;;;;26.80;90.70;;;;;;5031472;28;19917;-76
2022/07/02 11:20:09;;;;;;;;;;;27.00;93.10;;;;;;5030437;28;19980;-75
2022/07/02 11:22:34;;;;;;;;;;;27.40;88.30;;;;;;5030894;28;19917;-78
2022/07/02 11:25:00;;;;;;;;;;;27.40;90.70;;;;;;5030725;28;19924;-76
2022/07/02 11:27:25;;;;;;;;;;;26.90;90.90;;;;;;5031605;28;19999;-76
2022/07/02 11:29:52;;;;;;;;;;;26.80;92.60;;;;;;5030256;28;19955;-76
2022/07/02 11:32:17;;;;;;;;;;;26.50;91.10;;;;;;5032917;28;19917;-76
2022/07/02 11:34:43;;;;;;;;;;;26.40;89.00;;;;;;5028703;28;19919;-77
2022/07/02 11:37:18;;;;;;;;;;;26.10;93.40;;;;;;5043050;28;20283;-78
2022/07/02 11:39:43;;;;;;;;;;;25.80;93.80;;;;;;5029736;28;19917;-77
2022/07/02 11:42:09;;;;;;;;;;;25.40;93.90;;;;;;5031061;28;20425;-77
2022/07/02 11:44:34;;;;;;;;;;;25.30;94.50;;;;;;5031299;28;19986;-75
2022/07/02 11:47:00;;;;;;;;;;;25.40;93.30;;;;;;5031370;28;19928;-76
2022/07/02 11:49:27;;;;;;;;;;;25.20;94.60;;;;;;5029239;28;20008;-76
2022/07/02 11:51:54;;;;;;;;;;;24.80;94.80;;;;;;5030213;28;20027;-76
2022/07/02 11:54:20;;;;;;;;;;;24.80;95.10;;;;;;5031217;28;19964;-75
2022/07/02 11:56:46;;;;;;;;;;;24.80;94.60;;;;;;5030944;28;19967;-75
2022/07/02 11:59:13;;;;;;;;;;;25.10;92.30;;;;;;5031616;28;19926;-76
2022/07/02 12:01:40;;;;;;;;;;;25.00;92.80;;;;;;5031418;28;19916;-75
2022/07/02 12:04:07;;;;;;;;;;;24.80;93.50;;;;;;5026478;28;19921;-76
2022/07/02 12:06:34;;;;;;;;;;;24.60;94.50;;;;;;5027266;28;19925;-76
2022/07/02 12:09:00;;;;;;;;;;;24.20;93.90;;;;;;5016535;28;20008;-77
2022/07/02 12:11:26;;;;;;;;;;;24.10;95.10;;;;;;5035763;28;20012;-77
2022/07/02 12:13:52;;;;;;;;;;;24.10;96.30;;;;;;5034983;28;19957;-77
2022/07/02 12:16:19;;;;;;;;;;;24.30;95.30;;;;;;5043194;28;20373;-77
2022/07/02 12:18:55;;;;;;;;;;;24.20;96.40;;;;;;5037001;28;19944;-76
2022/07/02 12:21:20;;;;;;;;;;;24.50;96.30;;;;;;5034890;28;19996;-77
2022/07/02 12:23:47;;;;;;;;;;;24.80;96.30;;;;;;5035346;28;19997;-76
2022/07/02 12:26:23;;;;;;;;;;;24.80;96.00;;;;;;5036660;28;19924;-76
2022/07/02 12:31:41;;;;;;;;;;;24.70;96.30;;;;;;5035121;28;19983;-76
2022/07/02 12:34:06;;;;;;;;;;;24.70;97.00;;;;;;5034457;28;20228;-75
2022/07/02 12:36:32;;;;;;;;;;;25.20;95.20;;;;;;5032477;28;19918;-77
2022/07/02 12:38:57;;;;;;;;;;;25.40;95.10;;;;;;5034684;28;20399;-77
2022/07/02 12:41:23;;;;;;;;;;;25.30;95.90;;;;;;5033421;28;19970;-77
2022/07/02 12:43:52;;;;;;;;;;;25.20;96.80;;;;;;5034717;28;19928;-76
2022/07/02 12:46:18;;;;;;;;;;;24.80;96.10;;;;;;5033233;28;19925;-76
2022/07/02 12:48:44;;;;;;;;;;;24.50;97.00;;;;;;5035972;28;20706;-76
2022/07/02 12:51:10;;;;;;;;;;;24.30;96.80;;;;;;5034750;28;20268;-77
2022/07/02 12:53:36;;;;;;;;;;;24.50;96.80;;;;;;5033006;28;20347;-78
2022/07/02 12:56:04;;;;;;;;;;;24.70;98.80;;;;;;5033774;28;19917;-76
2022/07/02 12:58:30;;;;;;;;;;;24.50;96.70;;;;;;5036479;28;19939;-77
2022/07/02 13:00:55;;;;;;;;;;;24.70;97.10;;;;;;5036238;28;19963;-77
2022/07/02 13:03:22;;;;;;;;;;;24.80;97.50;;;;;;5036123;28;19917;-76
2022/07/02 13:05:51;;;;;;;;;;;24.80;96.80;;;;;;5037071;28;19925;-77
2022/07/02 13:08:20;;;;;;;;;;;24.90;97.30;;;;;;5037762;28;19909;-80
2022/07/02 13:10:46;;;;;;;;;;;25.00;94.30;;;;;;5036452;28;19936;-77
2022/07/02 13:13:12;;;;;;;;;;;24.70;96.70;;;;;;5034922;28;19917;-77
2022/07/02 13:15:38;;;;;;;;;;;24.40;96.90;;;;;;5037355;28;20186;-76
2022/07/02 13:18:03;;;;;;;;;;;24.30;98.00;;;;;;5036481;28;19913;-76
2022/07/02 13:20:29;;;;;;;;;;;24.00;98.40;;;;;;5019166;28;20020;-76
2022/07/02 13:22:55;;;;;;;;;;;24.30;98.30;;;;;;5034768;28;19935;-76
2022/07/02 13:25:21;;;;;;;;;;;24.80;98.60;;;;;;5034209;28;19925;-75
2022/07/02 13:27:47;;;;;;;;;;;25.00;96.90;;;;;;5062272;28;19913;-76
2022/07/02 13:30:13;;;;;;;;;;;24.80;97.30;;;;;;5036572;28;19932;-75
2022/07/02 13:32:39;;;;;;;;;;;24.70;98.50;;;;;;5036227;28;19967;-76
2022/07/02 13:35:05;;;;;;;;;;;24.80;98.70;;;;;;5022811;28;19953;-76
2022/07/02 13:37:30;;;;;;;;;;;25.10;97.20;;;;;;5034028;28;19913;-77
2022/07/02 13:39:56;;;;;;;;;;;25.40;97.80;;;;;;5025298;28;19952;-76
2022/07/02 13:42:22;;;;;;;;;;;25.20;97.30;;;;;;5032826;28;19917;-76
2022/07/02 13:44:47;;;;;;;;;;;25.10;95.60;;;;;;5023291;28;20013;-77
2022/07/02 13:47:13;;;;;;;;;;;24.50;96.80;;;;;;5032332;28;19913;-77
2022/07/02 13:49:38;;;;;;;;;;;24.50;97.80;;;;;;5035649;28;19924;-77
2022/07/02 13:52:04;;;;;;;;;;;24.40;97.90;;;;;;5032914;28;19936;-77
2022/07/02 13:54:30;;;;;;;;;;;24.50;97.80;;;;;;5032830;28;19923;-77
2022/07/02 13:56:55;;;;;;;;;;;25.00;98.00;;;;;;5032419;28;19913;-78
2022/07/02 13:59:21;;;;;;;;;;;25.40;98.00;;;;;;5032129;28;19924;-77
2022/07/02 14:01:46;;;;;;;;;;;25.20;96.50;;;;;;5031701;28;20002;-79
2022/07/02 14:04:12;;;;;;;;;;;25.20;96.30;;;;;;5032417;28;19917;-77
2022/07/02 14:06:38;;;;;;;;;;;25.00;95.70;;;;;;5033897;28;20039;-78
2022/07/02 14:09:04;;;;;;;;;;;24.80;97.40;;;;;;5032238;28;19921;-78
2022/07/02 14:11:30;;;;;;;;;;;24.80;96.20;;;;;;5031077;28;19939;-76
2022/07/02 14:13:55;;;;;;;;;;;25.20;98.40;;;;;;5032121;28;19921;-77
2022/07/02 14:16:21;;;;;;;;;;;25.50;96.70;;;;;;5032317;28;19921;-77
2022/07/02 14:18:47;;;;;;;;;;;25.90;96.50;;;;;;5031103;28;19924;-77
2022/07/02 14:21:12;;;;;;;;;;;26.00;96.70;;;;;;5032928;28;19917;-77